createdAt,value
2023-04-03T00:03:30.725Z,100.00
2023-04-03T00:08:35.118Z,100.00
2023-04-03T00:13:39.495Z,100.00
2023-04-03T00:18:44.122Z,100.00
2023-04-03T00:23:47.481Z,100.00
2023-04-03T00:28:51.764Z,100.00
2023-04-03T00:33:54.941Z,100.00
2023-04-03T00:38:59.610Z,100.00
2023-04-03T00:44:02.760Z,100.00
2023-04-03T00:49:06.195Z,100.00
2023-04-03T00:54:09.950Z,100.00
2023-04-03T00:59:27.717Z,100.00
2023-04-03T01:04:41.164Z,100.00
2023-04-03T01:09:46.670Z,100.00
2023-04-03T01:14:55.631Z,100.00
2023-04-03T01:20:20.945Z,100.00
2023-04-03T01:25:24.478Z,100.00
2023-04-03T01:30:33.966Z,100.00
2023-04-03T01:35:39.498Z,100.00
2023-04-03T01:40:43.705Z,100.00
2023-04-03T01:45:48.163Z,100.00
2023-04-03T01:50:52.187Z,100.00
2023-04-03T01:55:56.368Z,100.00
2023-04-03T02:01:00.521Z,100.00
2023-04-03T02:06:04.805Z,100.00
2023-04-03T02:11:08.780Z,100.00
2023-04-03T02:16:13.986Z,100.00
2023-04-03T02:21:18.841Z,100.00
2023-04-03T02:26:22.539Z,100.00
2023-04-03T02:31:25.641Z,100.00
2023-04-03T02:36:31.812Z,100.00
2023-04-03T02:41:39.420Z,100.00
2023-04-03T02:46:49.223Z,100.00
2023-04-03T02:51:54.614Z,100.00
2023-04-03T02:56:59.506Z,100.00
2023-04-03T03:02:03.205Z,100.00
2023-04-03T03:07:07.136Z,100.00
2023-04-03T03:12:10.356Z,100.00
2023-04-03T03:17:14.358Z,100.00
2023-04-03T03:22:18.199Z,100.00
2023-04-03T03:27:24.043Z,100.00
2023-04-03T03:32:27.268Z,100.00
2023-04-03T03:37:31.058Z,100.00
2023-04-03T03:42:35.058Z,100.00
2023-04-03T03:47:39.655Z,100.00
2023-04-03T03:52:43.833Z,100.00
2023-04-03T03:57:48.531Z,100.00
2023-04-03T04:02:52.352Z,100.00
2023-04-03T04:07:59.219Z,100.00
2023-04-03T04:13:03.994Z,100.00
2023-04-03T04:18:08.646Z,100.00
2023-04-03T04:23:12.819Z,100.00
2023-04-03T04:28:17.984Z,100.00
2023-04-03T04:33:23.235Z,100.00
2023-04-03T04:38:27.337Z,100.00
2023-04-03T04:43:31.577Z,100.00
2023-04-03T04:48:36.504Z,100.00
2023-04-03T04:53:42.438Z,100.00
2023-04-03T04:58:49.675Z,100.00
2023-04-03T05:03:56.254Z,100.00
2023-04-03T05:09:00.891Z,100.00
2023-04-03T05:14:07.872Z,100.00
2023-04-03T05:19:13.959Z,100.00
2023-04-03T05:24:19.190Z,100.00
2023-04-03T05:29:23.220Z,100.00
2023-04-03T05:34:28.081Z,100.00
2023-04-03T05:39:33.569Z,100.00
2023-04-03T05:44:39.162Z,100.00
2023-04-03T05:49:42.612Z,100.00
2023-04-03T05:54:49.469Z,99.93
2023-04-03T05:59:58.958Z,100.00
2023-04-03T06:05:03.915Z,100.00
2023-04-03T06:10:08.339Z,100.00
2023-04-03T06:15:13.143Z,100.00
2023-04-03T06:20:17.605Z,99.38
2023-04-03T06:25:22.498Z,99.22
2023-04-03T06:30:26.916Z,99.95
2023-04-03T06:35:31.861Z,97.35
2023-04-03T06:40:36.253Z,97.76
2023-04-03T06:45:40.155Z,97.23
2023-04-03T06:50:44.605Z,97.98
2023-04-03T06:55:48.873Z,97.59
2023-04-03T07:00:52.966Z,99.92
2023-04-03T07:05:57.211Z,100.00
2023-04-03T07:11:00.981Z,99.05
2023-04-03T07:16:06.326Z,100.00
2023-04-03T07:21:09.621Z,100.00
2023-04-03T07:26:13.368Z,100.00
2023-04-03T07:31:19.814Z,100.00
2023-04-03T07:36:24.526Z,99.58
2023-04-03T07:41:28.314Z,99.53
2023-04-03T07:46:31.691Z,98.99
2023-04-03T07:51:35.377Z,98.11
2023-04-03T07:56:38.922Z,95.00
2023-04-03T08:01:43.095Z,93.87
2023-04-03T08:06:47.759Z,95.84
2023-04-03T08:11:54.492Z,96.06
2023-04-03T08:16:58.347Z,95.82
2023-04-03T08:22:04.402Z,96.71
2023-04-03T08:27:08.162Z,94.97
2023-04-03T08:32:12.286Z,90.18
2023-04-03T08:37:17.604Z,92.29
2023-04-03T08:42:43.820Z,90.06
2023-04-03T08:48:12.233Z,89.73
2023-04-03T08:53:29.825Z,91.25
2023-04-03T08:58:50.791Z,90.18
2023-04-03T09:03:54.051Z,88.50
2023-04-03T09:09:18.298Z,91.51
2023-04-03T09:14:37.605Z,94.46
2023-04-03T09:20:22.264Z,95.68
2023-04-03T09:25:38.732Z,97.71
2023-04-03T09:30:42.766Z,98.46
2023-04-03T09:35:48.921Z,99.57
2023-04-03T09:41:08.770Z,97.96
2023-04-03T09:46:30.599Z,98.59
2023-04-03T09:51:34.782Z,97.44
2023-04-03T09:56:39.636Z,97.92
2023-04-03T10:01:59.320Z,97.54
2023-04-03T10:07:03.356Z,96.31
2023-04-03T10:12:15.703Z,97.06
2023-04-03T10:17:25.181Z,95.40
2023-04-03T10:22:49.339Z,95.34
2023-04-03T10:28:16.439Z,94.60
2023-04-03T10:33:44.852Z,96.29
2023-04-03T10:39:07.182Z,95.14
2023-04-03T10:44:23.140Z,96.77
2023-04-03T10:50:05.642Z,99.28
2023-04-03T10:55:14.867Z,96.96
2023-04-03T11:00:24.214Z,97.28
2023-04-03T11:05:45.928Z,97.98
2023-04-03T11:10:52.661Z,98.49
2023-04-03T11:15:56.727Z,99.16
2023-04-03T11:21:06.823Z,98.75
2023-04-03T11:26:10.660Z,98.14
2023-04-03T11:31:43.712Z,98.85
2023-04-03T11:37:03.461Z,100.00
2023-04-03T11:42:17.380Z,100.00
2023-04-03T11:47:47.242Z,100.00
2023-04-03T11:52:50.400Z,99.75
2023-04-03T11:58:00.269Z,100.00
2023-04-03T12:03:03.512Z,100.00
2023-04-03T12:08:46.447Z,100.00
2023-04-03T12:13:53.422Z,100.00
2023-04-03T12:18:59.927Z,98.25
2023-04-03T12:24:10.416Z,99.71
2023-04-03T12:29:25.044Z,100.00
2023-04-03T12:35:03.862Z,98.08
2023-04-03T12:40:26.087Z,98.10
2023-04-03T12:45:31.278Z,96.05
2023-04-03T12:50:35.668Z,92.05
2023-04-03T12:55:39.880Z,93.14
2023-04-03T13:00:43.934Z,90.04
2023-04-03T13:05:47.981Z,89.20
2023-04-03T13:11:03.808Z,86.50
2023-04-03T13:16:11.931Z,93.00
2023-04-03T13:21:20.643Z,91.45
2023-04-03T13:26:27.581Z,92.93
2023-04-03T13:31:40.236Z,89.52
2023-04-03T13:36:56.241Z,93.89
2023-04-03T13:42:05.178Z,92.97
2023-04-03T13:47:25.831Z,92.06
2023-04-03T13:52:37.150Z,93.72
2023-04-03T13:57:55.878Z,92.59
2023-04-03T14:02:59.690Z,92.89
2023-04-03T14:08:03.431Z,92.84
2023-04-03T14:13:07.060Z,88.64
2023-04-03T14:18:18.993Z,87.92
2023-04-03T14:23:22.536Z,90.25
2023-04-03T14:28:26.819Z,88.57
2023-04-03T14:33:32.425Z,88.54
2023-04-03T14:38:36.546Z,90.20
2023-04-03T14:43:40.144Z,86.00
2023-04-03T14:48:44.428Z,86.03
2023-04-03T14:53:47.593Z,89.98
2023-04-03T14:58:54.945Z,87.06
2023-04-03T15:03:59.080Z,85.81
2023-04-03T15:09:04.431Z,86.23
2023-04-03T15:14:11.278Z,88.89
2023-04-03T15:19:15.695Z,87.68
2023-04-03T15:24:19.336Z,86.67
2023-04-03T15:29:23.313Z,87.71
2023-04-03T15:34:27.011Z,88.50
2023-04-03T15:39:30.636Z,88.11
2023-04-03T15:44:36.030Z,90.99
2023-04-03T15:49:40.317Z,89.07
2023-04-03T15:54:44.003Z,88.29
2023-04-03T15:59:47.286Z,89.44
2023-04-03T16:04:51.926Z,90.64
2023-04-03T16:09:56.266Z,92.83
2023-04-03T16:15:00.016Z,93.49
2023-04-03T16:20:04.946Z,90.54
2023-04-03T16:25:10.539Z,92.08
2023-04-03T16:30:14.220Z,91.67
2023-04-03T16:35:17.737Z,92.08
2023-04-03T16:40:22.036Z,92.02
2023-04-03T16:45:25.935Z,92.93
2023-04-03T16:50:30.297Z,94.05
2023-04-03T16:55:33.998Z,92.85
2023-04-03T17:00:38.420Z,92.10
2023-04-03T17:05:42.232Z,92.73
2023-04-03T17:10:46.436Z,93.77
2023-04-03T17:15:50.783Z,93.22
2023-04-03T17:20:55.040Z,94.13
2023-04-03T17:25:58.689Z,94.50
2023-04-03T17:31:04.029Z,96.50
2023-04-03T17:36:08.382Z,97.44
2023-04-03T17:41:12.844Z,97.69
2023-04-03T17:46:17.882Z,98.16
2023-04-03T17:51:24.140Z,99.70
2023-04-03T17:56:27.651Z,93.74
2023-04-03T18:01:35.022Z,96.70
2023-04-03T18:06:51.477Z,96.21
2023-04-03T18:11:56.610Z,96.81
2023-04-03T18:17:01.341Z,96.71
2023-04-03T18:22:09.033Z,97.72
2023-04-03T18:27:14.919Z,98.22
2023-04-03T18:32:20.023Z,98.38
2023-04-03T18:37:24.428Z,92.60
2023-04-03T18:42:28.821Z,96.07
2023-04-03T18:47:33.717Z,97.44
2023-04-03T18:52:37.185Z,94.81
2023-04-03T18:57:41.086Z,96.14
2023-04-03T19:02:45.896Z,98.10
2023-04-03T19:07:50.608Z,95.03
2023-04-03T19:12:53.793Z,98.29
2023-04-03T19:17:58.159Z,99.67
2023-04-03T19:23:02.727Z,98.44
2023-04-03T19:28:07.103Z,100.00
2023-04-03T19:33:10.653Z,98.52
2023-04-03T19:38:14.276Z,98.45
2023-04-03T19:43:18.203Z,99.32
2023-04-03T19:48:21.785Z,100.00
2023-04-03T19:53:29.257Z,100.00
2023-04-03T19:58:33.857Z,100.00
2023-04-03T20:03:37.601Z,100.00
2023-04-03T20:08:41.189Z,100.00
2023-04-03T20:13:44.727Z,98.13
2023-04-03T20:18:50.385Z,96.88
2023-04-03T20:23:55.788Z,98.20
2023-04-03T20:29:01.548Z,95.25
2023-04-03T20:34:05.403Z,85.88
2023-04-03T20:39:08.889Z,85.30
2023-04-03T20:44:12.171Z,85.02
2023-04-03T20:49:16.841Z,86.06
2023-04-03T20:54:20.889Z,87.15
2023-04-03T20:59:24.733Z,90.38
2023-04-03T21:04:53.393Z,93.80
2023-04-03T21:10:34.497Z,94.47
2023-04-03T21:15:46.778Z,95.71
2023-04-03T21:20:50.656Z,96.55
2023-04-03T21:25:54.593Z,96.52
2023-04-03T21:30:58.572Z,97.25
2023-04-03T21:36:03.484Z,97.75
2023-04-03T21:41:07.826Z,98.75
2023-04-03T21:46:11.380Z,98.59
2023-04-03T21:51:14.693Z,96.74
2023-04-03T21:56:18.362Z,98.05
2023-04-03T22:01:23.091Z,98.46
2023-04-03T22:06:27.023Z,97.62
2023-04-03T22:11:30.736Z,95.20
2023-04-03T22:16:46.997Z,95.17
2023-04-03T22:21:50.107Z,95.16
2023-04-03T22:26:54.538Z,96.47
2023-04-03T22:31:58.304Z,95.53
2023-04-03T22:37:02.331Z,96.70
2023-04-03T22:42:08.052Z,96.56
2023-04-03T22:47:11.588Z,97.60
2023-04-03T22:52:15.182Z,98.16
2023-04-03T22:57:19.004Z,98.53
2023-04-03T23:02:22.701Z,98.05
2023-04-03T23:07:26.875Z,98.36
2023-04-03T23:12:30.590Z,97.71
2023-04-03T23:17:37.869Z,98.53
2023-04-03T23:22:42.688Z,98.23
2023-04-03T23:27:53.786Z,98.62
2023-04-03T23:32:57.334Z,97.68
2023-04-03T23:38:01.159Z,97.86
2023-04-03T23:43:05.149Z,96.11
2023-04-03T23:48:09.228Z,97.23
2023-04-03T23:53:14.977Z,97.11
2023-04-03T23:58:18.372Z,97.09
